sensor_id;sensor_type;location;lat;lon;timestamp;P1;durP1;ratioP1;P2;durP2;ratioP2
24619;SDS011;12763;55.802;37.404;2023-05-10T00:02:06;22.50;;;8.15;;
24619;SDS011;12763;55.802;37.404;2023-05-10T00:04:33;18.92;;;7.97;;
24619;SDS011;12763;55.802;37.404;2023-05-10T00:06:59;21.73;;;8.07;;
24619;SDS011;12763;55.802;37.404;2023-05-10T00:09:25;24.63;;;8.52;;
24619;SDS011;12763;55.802;37.404;2023-05-10T00:11:51;17.10;;;7.28;;
24619;SDS011;12763;55.802;37.404;2023-05-10T00:14:18;15.10;;;8.02;;
24619;SDS011;12763;55.802;37.404;2023-05-10T00:16:44;21.65;;;8.90;;
24619;SDS011;12763;55.802;37.404;2023-05-10T00:19:11;15.63;;;7.75;;
24619;SDS011;12763;55.802;37.404;2023-05-10T00:21:37;19.15;;;7.38;;
24619;SDS011;12763;55.802;37.404;2023-05-10T00:24:03;15.10;;;7.03;;
24619;SDS011;12763;55.802;37.404;2023-05-10T00:26:30;18.92;;;6.65;;
24619;SDS011;12763;55.802;37.404;2023-05-10T00:28:56;17.80;;;7.70;;
24619;SDS011;12763;55.802;37.404;2023-05-10T00:31:24;13.88;;;7.35;;
24619;SDS011;12763;55.802;37.404;2023-05-10T00:33:50;14.98;;;6.72;;
24619;SDS011;12763;55.802;37.404;2023-05-10T00:36:19;18.92;;;7.72;;
24619;SDS011;12763;55.802;37.404;2023-05-10T00:38:46;16.33;;;6.63;;
24619;SDS011;12763;55.802;37.404;2023-05-10T00:41:12;14.65;;;7.13;;
24619;SDS011;12763;55.802;37.404;2023-05-10T00:43:43;14.13;;;7.43;;
24619;SDS011;12763;55.802;37.404;2023-05-10T00:46:09;12.73;;;6.13;;
24619;SDS011;12763;55.802;37.404;2023-05-10T00:48:43;14.65;;;7.05;;
24619;SDS011;12763;55.802;37.404;2023-05-10T00:51:11;12.23;;;6.70;;
24619;SDS011;12763;55.802;37.404;2023-05-10T00:53:38;12.23;;;5.95;;
24619;SDS011;12763;55.802;37.404;2023-05-10T00:56:04;14.02;;;6.50;;
24619;SDS011;12763;55.802;37.404;2023-05-10T00:58:34;16.30;;;7.10;;
24619;SDS011;12763;55.802;37.404;2023-05-10T01:01:01;16.58;;;7.18;;
24619;SDS011;12763;55.802;37.404;2023-05-10T01:03:28;13.35;;;6.43;;
24619;SDS011;12763;55.802;37.404;2023-05-10T01:05:58;18.75;;;7.60;;
24619;SDS011;12763;55.802;37.404;2023-05-10T01:08:25;14.93;;;6.82;;
24619;SDS011;12763;55.802;37.404;2023-05-10T01:10:52;17.40;;;7.60;;
24619;SDS011;12763;55.802;37.404;2023-05-10T01:13:19;15.80;;;6.45;;
24619;SDS011;12763;55.802;37.404;2023-05-10T01:15:58;15.23;;;7.03;;
24619;SDS011;12763;55.802;37.404;2023-05-10T01:18:30;17.40;;;6.45;;
24619;SDS011;12763;55.802;37.404;2023-05-10T01:21:15;19.65;;;6.65;;
24619;SDS011;12763;55.802;37.404;2023-05-10T01:29:40;15.50;;;6.93;;
24619;SDS011;12763;55.802;37.404;2023-05-10T01:32:34;16.88;;;7.20;;
24619;SDS011;12763;55.802;37.404;2023-05-10T01:44:35;13.75;;;6.32;;
24619;SDS011;12763;55.802;37.404;2023-05-10T01:47:25;16.70;;;7.55;;
24619;SDS011;12763;55.802;37.404;2023-05-10T01:50:18;27.92;;;7.15;;
24619;SDS011;12763;55.802;37.404;2023-05-10T01:52:53;17.35;;;7.00;;
24619;SDS011;12763;55.802;37.404;2023-05-10T01:55:32;16.98;;;7.75;;
24619;SDS011;12763;55.802;37.404;2023-05-10T01:58:18;12.93;;;7.45;;
24619;SDS011;12763;55.802;37.404;2023-05-10T02:00:49;22.15;;;8.25;;
24619;SDS011;12763;55.802;37.404;2023-05-10T02:03:18;13.00;;;7.07;;
24619;SDS011;12763;55.802;37.404;2023-05-10T02:05:48;16.13;;;8.38;;
24619;SDS011;12763;55.802;37.404;2023-05-10T02:08:16;18.55;;;7.32;;
24619;SDS011;12763;55.802;37.404;2023-05-10T02:10:45;16.48;;;7.20;;
24619;SDS011;12763;55.802;37.404;2023-05-10T02:13:16;17.73;;;7.88;;
24619;SDS011;12763;55.802;37.404;2023-05-10T02:15:46;15.85;;;7.70;;
24619;SDS011;12763;55.802;37.404;2023-05-10T02:18:16;16.95;;;7.47;;
24619;SDS011;12763;55.802;37.404;2023-05-10T02:20:45;24.33;;;8.52;;
24619;SDS011;12763;55.802;37.404;2023-05-10T02:23:17;12.73;;;6.38;;
24619;SDS011;12763;55.802;37.404;2023-05-10T02:25:44;17.40;;;7.43;;
24619;SDS011;12763;55.802;37.404;2023-05-10T02:28:15;15.85;;;6.88;;
24619;SDS011;12763;55.802;37.404;2023-05-10T02:30:43;19.83;;;7.97;;
24619;SDS011;12763;55.802;37.404;2023-05-10T02:33:10;13.48;;;7.25;;
24619;SDS011;12763;55.802;37.404;2023-05-10T02:35:40;17.00;;;7.90;;
24619;SDS011;12763;55.802;37.404;2023-05-10T02:38:10;18.88;;;6.63;;
24619;SDS011;12763;55.802;37.404;2023-05-10T02:40:38;14.75;;;7.80;;
24619;SDS011;12763;55.802;37.404;2023-05-10T02:43:09;24.45;;;7.97;;
24619;SDS011;12763;55.802;37.404;2023-05-10T02:45:39;16.42;;;8.52;;
24619;SDS011;12763;55.802;37.404;2023-05-10T02:48:08;14.73;;;7.68;;
24619;SDS011;12763;55.802;37.404;2023-05-10T02:50:35;15.70;;;7.10;;
24619;SDS011;12763;55.802;37.404;2023-05-10T02:53:16;14.90;;;7.35;;
24619;SDS011;12763;55.802;37.404;2023-05-10T02:55:49;17.52;;;7.15;;
24619;SDS011;12763;55.802;37.404;2023-05-10T02:58:20;15.02;;;7.47;;
24619;SDS011;12763;55.802;37.404;2023-05-10T03:00:48;19.95;;;7.88;;
24619;SDS011;12763;55.802;37.404;2023-05-10T03:03:14;15.00;;;6.72;;
24619;SDS011;12763;55.802;37.404;2023-05-10T03:05:40;14.20;;;7.60;;
24619;SDS011;12763;55.802;37.404;2023-05-10T03:08:14;17.40;;;7.47;;
24619;SDS011;12763;55.802;37.404;2023-05-10T03:10:49;17.02;;;7.85;;
24619;SDS011;12763;55.802;37.404;2023-05-10T03:16:19;21.00;;;8.80;;
24619;SDS011;12763;55.802;37.404;2023-05-10T03:19:24;17.03;;;9.00;;
24619;SDS011;12763;55.802;37.404;2023-05-10T03:22:21;15.80;;;7.75;;
24619;SDS011;12763;55.802;37.404;2023-05-10T03:24:53;18.23;;;8.93;;
24619;SDS011;12763;55.802;37.404;2023-05-10T03:27:40;21.13;;;8.57;;
24619;SDS011;12763;55.802;37.404;2023-05-10T03:30:12;18.77;;;9.27;;
24619;SDS011;12763;55.802;37.404;2023-05-10T03:32:39;17.40;;;8.82;;
24619;SDS011;12763;55.802;37.404;2023-05-10T03:35:09;17.45;;;8.48;;
24619;SDS011;12763;55.802;37.404;2023-05-10T03:37:37;16.33;;;8.15;;
24619;SDS011;12763;55.802;37.404;2023-05-10T03:40:04;20.38;;;9.15;;
24619;SDS011;12763;55.802;37.404;2023-05-10T03:42:33;18.67;;;9.07;;
24619;SDS011;12763;55.802;37.404;2023-05-10T03:45:00;24.23;;;8.80;;
24619;SDS011;12763;55.802;37.404;2023-05-10T03:47:31;13.75;;;7.72;;
24619;SDS011;12763;55.802;37.404;2023-05-10T03:49:58;20.85;;;8.27;;
24619;SDS011;12763;55.802;37.404;2023-05-10T03:52:25;21.40;;;8.00;;
24619;SDS011;12763;55.802;37.404;2023-05-10T03:54:51;20.85;;;7.82;;
24619;SDS011;12763;55.802;37.404;2023-05-10T03:57:18;15.73;;;8.40;;
24619;SDS011;12763;55.802;37.404;2023-05-10T03:59:47;15.13;;;8.07;;
24619;SDS011;12763;55.802;37.404;2023-05-10T04:02:13;23.08;;;8.85;;
24619;SDS011;12763;55.802;37.404;2023-05-10T04:04:40;17.67;;;8.30;;
24619;SDS011;12763;55.802;37.404;2023-05-10T04:07:06;19.58;;;8.13;;
24619;SDS011;12763;55.802;37.404;2023-05-10T04:09:33;14.75;;;8.02;;
24619;SDS011;12763;55.802;37.404;2023-05-10T04:11:59;14.90;;;7.65;;
24619;SDS011;12763;55.802;37.404;2023-05-10T04:14:28;20.63;;;7.63;;
24619;SDS011;12763;55.802;37.404;2023-05-10T04:16:57;16.88;;;8.07;;
24619;SDS011;12763;55.802;37.404;2023-05-10T04:19:23;19.10;;;9.00;;
24619;SDS011;12763;55.802;37.404;2023-05-10T04:21:49;14.65;;;7.03;;
24619;SDS011;12763;55.802;37.404;2023-05-10T04:24:16;26.88;;;8.90;;
24619;SDS011;12763;55.802;37.404;2023-05-10T04:26:42;18.67;;;8.48;;
24619;SDS011;12763;55.802;37.404;2023-05-10T04:29:09;20.25;;;7.88;;
24619;SDS011;12763;55.802;37.404;2023-05-10T04:31:35;26.35;;;9.38;;
24619;SDS011;12763;55.802;37.404;2023-05-10T04:34:02;22.30;;;8.65;;
24619;SDS011;12763;55.802;37.404;2023-05-10T04:36:28;17.58;;;7.55;;
24619;SDS011;12763;55.802;37.404;2023-05-10T04:38:54;20.90;;;8.13;;
24619;SDS011;12763;55.802;37.404;2023-05-10T04:41:24;17.30;;;9.43;;
24619;SDS011;12763;55.802;37.404;2023-05-10T04:43:50;15.40;;;8.00;;
24619;SDS011;12763;55.802;37.404;2023-05-10T04:46:18;18.70;;;7.55;;
24619;SDS011;12763;55.802;37.404;2023-05-10T04:48:47;17.42;;;7.75;;
24619;SDS011;12763;55.802;37.404;2023-05-10T04:51:14;16.60;;;7.57;;
24619;SDS011;12763;55.802;37.404;2023-05-10T04:53:43;14.60;;;8.00;;
24619;SDS011;12763;55.802;37.404;2023-05-10T04:56:11;17.92;;;7.95;;
24619;SDS011;12763;55.802;37.404;2023-05-10T04:58:39;16.25;;;7.85;;
24619;SDS011;12763;55.802;37.404;2023-05-10T05:01:05;16.27;;;8.60;;
24619;SDS011;12763;55.802;37.404;2023-05-10T05:03:33;22.13;;;9.15;;
24619;SDS011;12763;55.802;37.404;2023-05-10T05:06:01;17.20;;;8.02;;
24619;SDS011;12763;55.802;37.404;2023-05-10T05:08:27;29.55;;;7.93;;
24619;SDS011;12763;55.802;37.404;2023-05-10T05:10:54;24.40;;;8.30;;
24619;SDS011;12763;55.802;37.404;2023-05-10T05:13:22;20.58;;;8.98;;
24619;SDS011;12763;55.802;37.404;2023-05-10T05:15:51;19.95;;;7.80;;
24619;SDS011;12763;55.802;37.404;2023-05-10T05:18:17;17.80;;;7.40;;
24619;SDS011;12763;55.802;37.404;2023-05-10T05:20:47;17.00;;;7.47;;
24619;SDS011;12763;55.802;37.404;2023-05-10T05:23:16;20.65;;;8.73;;
24619;SDS011;12763;55.802;37.404;2023-05-10T05:25:44;16.48;;;7.57;;
24619;SDS011;12763;55.802;37.404;2023-05-10T05:28:14;23.38;;;6.75;;
24619;SDS011;12763;55.802;37.404;2023-05-10T05:30:40;18.95;;;7.53;;
24619;SDS011;12763;55.802;37.404;2023-05-10T05:33:09;16.20;;;7.05;;
24619;SDS011;12763;55.802;37.404;2023-05-10T05:35:36;23.40;;;7.57;;
24619;SDS011;12763;55.802;37.404;2023-05-10T05:38:03;12.40;;;6.38;;
24619;SDS011;12763;55.802;37.404;2023-05-10T05:40:29;16.35;;;6.10;;
24619;SDS011;12763;55.802;37.404;2023-05-10T05:42:56;16.73;;;6.38;;
24619;SDS011;12763;55.802;37.404;2023-05-10T05:45:23;20.13;;;6.68;;
24619;SDS011;12763;55.802;37.404;2023-05-10T05:47:49;14.63;;;5.63;;
24619;SDS011;12763;55.802;37.404;2023-05-10T05:50:15;24.65;;;7.10;;
24619;SDS011;12763;55.802;37.404;2023-05-10T05:52:43;17.38;;;5.82;;
24619;SDS011;12763;55.802;37.404;2023-05-10T05:55:09;18.33;;;6.28;;
24619;SDS011;12763;55.802;37.404;2023-05-10T05:57:38;17.48;;;5.95;;
24619;SDS011;12763;55.802;37.404;2023-05-10T06:00:07;25.33;;;7.00;;
24619;SDS011;12763;55.802;37.404;2023-05-10T06:02:40;26.92;;;6.45;;
24619;SDS011;12763;55.802;37.404;2023-05-10T06:05:07;17.38;;;5.78;;
24619;SDS011;12763;55.802;37.404;2023-05-10T06:07:34;12.32;;;5.35;;
24619;SDS011;12763;55.802;37.404;2023-05-10T06:10:01;17.48;;;5.60;;
24619;SDS011;12763;55.802;37.404;2023-05-10T06:12:45;24.38;;;5.93;;
24619;SDS011;12763;55.802;37.404;2023-05-10T06:15:11;13.45;;;4.22;;
24619;SDS011;12763;55.802;37.404;2023-05-10T06:17:40;20.30;;;5.32;;
24619;SDS011;12763;55.802;37.404;2023-05-10T06:20:11;17.38;;;6.35;;
24619;SDS011;12763;55.802;37.404;2023-05-10T06:22:38;20.20;;;5.30;;
24619;SDS011;12763;55.802;37.404;2023-05-10T06:25:04;13.40;;;4.90;;
24619;SDS011;12763;55.802;37.404;2023-05-10T06:27:31;13.27;;;5.20;;
24619;SDS011;12763;55.802;37.404;2023-05-10T06:29:57;13.88;;;5.43;;
24619;SDS011;12763;55.802;37.404;2023-05-10T06:32:23;8.98;;;4.38;;
24619;SDS011;12763;55.802;37.404;2023-05-10T06:34:49;11.98;;;4.22;;
24619;SDS011;12763;55.802;37.404;2023-05-10T06:37:16;11.20;;;4.30;;
24619;SDS011;12763;55.802;37.404;2023-05-10T06:39:42;15.18;;;4.57;;
24619;SDS011;12763;55.802;37.404;2023-05-10T06:42:12;23.33;;;4.93;;
24619;SDS011;12763;55.802;37.404;2023-05-10T06:44:38;10.65;;;4.57;;
24619;SDS011;12763;55.802;37.404;2023-05-10T06:47:25;14.50;;;4.32;;
24619;SDS011;12763;55.802;37.404;2023-05-10T06:49:54;9.30;;;3.67;;
24619;SDS011;12763;55.802;37.404;2023-05-10T06:52:51;10.10;;;4.07;;
24619;SDS011;12763;55.802;37.404;2023-05-10T06:55:44;12.48;;;4.20;;
24619;SDS011;12763;55.802;37.404;2023-05-10T06:58:10;18.58;;;4.88;;
24619;SDS011;12763;55.802;37.404;2023-05-10T07:00:37;13.60;;;4.07;;
24619;SDS011;12763;55.802;37.404;2023-05-10T07:03:06;8.82;;;3.83;;
24619;SDS011;12763;55.802;37.404;2023-05-10T07:05:32;13.63;;;3.75;;
24619;SDS011;12763;55.802;37.404;2023-05-10T07:07:59;8.98;;;3.90;;
24619;SDS011;12763;55.802;37.404;2023-05-10T07:10:25;13.88;;;4.35;;
24619;SDS011;12763;55.802;37.404;2023-05-10T07:12:51;9.57;;;3.60;;
24619;SDS011;12763;55.802;37.404;2023-05-10T07:15:21;10.52;;;3.50;;
24619;SDS011;12763;55.802;37.404;2023-05-10T07:17:47;4.57;;;2.92;;
24619;SDS011;12763;55.802;37.404;2023-05-10T07:20:14;8.13;;;3.40;;
24619;SDS011;12763;55.802;37.404;2023-05-10T07:22:40;7.55;;;3.45;;
24619;SDS011;12763;55.802;37.404;2023-05-10T07:25:07;12.70;;;3.92;;
24619;SDS011;12763;55.802;37.404;2023-05-10T07:27:33;9.43;;;3.17;;
24619;SDS011;12763;55.802;37.404;2023-05-10T07:29:59;7.25;;;3.17;;
24619;SDS011;12763;55.802;37.404;2023-05-10T07:32:29;7.97;;;3.53;;
24619;SDS011;12763;55.802;37.404;2023-05-10T07:34:55;8.50;;;3.53;;
24619;SDS011;12763;55.802;37.404;2023-05-10T07:37:21;11.15;;;3.97;;
24619;SDS011;12763;55.802;37.404;2023-05-10T07:39:47;7.25;;;2.92;;
24619;SDS011;12763;55.802;37.404;2023-05-10T07:42:13;7.32;;;2.95;;
24619;SDS011;12763;55.802;37.404;2023-05-10T07:44:39;10.80;;;3.05;;
24619;SDS011;12763;55.802;37.404;2023-05-10T07:47:06;7.28;;;2.72;;
24619;SDS011;12763;55.802;37.404;2023-05-10T07:49:35;11.65;;;3.50;;
24619;SDS011;12763;55.802;37.404;2023-05-10T07:52:02;5.43;;;3.15;;
24619;SDS011;12763;55.802;37.404;2023-05-10T07:54:29;7.30;;;2.85;;
24619;SDS011;12763;55.802;37.404;2023-05-10T07:56:56;7.55;;;3.08;;
24619;SDS011;12763;55.802;37.404;2023-05-10T07:59:24;10.10;;;3.25;;
24619;SDS011;12763;55.802;37.404;2023-05-10T08:01:51;12.52;;;3.00;;
24619;SDS011;12763;55.802;37.404;2023-05-10T08:04:17;5.70;;;2.65;;
24619;SDS011;12763;55.802;37.404;2023-05-10T08:06:44;8.88;;;2.65;;
24619;SDS011;12763;55.802;37.404;2023-05-10T08:09:10;7.43;;;3.17;;
24619;SDS011;12763;55.802;37.404;2023-05-10T08:11:36;9.10;;;3.08;;
24619;SDS011;12763;55.802;37.404;2023-05-10T08:14:04;7.25;;;2.47;;
24619;SDS011;12763;55.802;37.404;2023-05-10T08:16:30;7.90;;;2.92;;
24619;SDS011;12763;55.802;37.404;2023-05-10T08:19:04;6.53;;;2.25;;
24619;SDS011;12763;55.802;37.404;2023-05-10T08:21:30;5.65;;;2.65;;
24619;SDS011;12763;55.802;37.404;2023-05-10T08:23:56;5.13;;;2.30;;
24619;SDS011;12763;55.802;37.404;2023-05-10T08:26:23;5.35;;;2.10;;
24619;SDS011;12763;55.802;37.404;2023-05-10T08:28:49;4.55;;;2.22;;
24619;SDS011;12763;55.802;37.404;2023-05-10T08:31:16;7.90;;;2.42;;
24619;SDS011;12763;55.802;37.404;2023-05-10T08:33:42;9.82;;;2.42;;
24619;SDS011;12763;55.802;37.404;2023-05-10T08:36:08;6.45;;;2.42;;
24619;SDS011;12763;55.802;37.404;2023-05-10T08:38:34;8.05;;;2.53;;
24619;SDS011;12763;55.802;37.404;2023-05-10T08:41:00;7.47;;;2.85;;
24619;SDS011;12763;55.802;37.404;2023-05-10T08:43:28;8.35;;;2.65;;
24619;SDS011;12763;55.802;37.404;2023-05-10T08:45:55;5.00;;;2.55;;
24619;SDS011;12763;55.802;37.404;2023-05-10T08:48:23;3.95;;;2.03;;
24619;SDS011;12763;55.802;37.404;2023-05-10T08:50:52;4.90;;;2.20;;
24619;SDS011;12763;55.802;37.404;2023-05-10T08:53:24;6.82;;;2.38;;
24619;SDS011;12763;55.802;37.404;2023-05-10T08:55:55;8.02;;;1.90;;
24619;SDS011;12763;55.802;37.404;2023-05-10T08:58:25;3.65;;;2.25;;
24619;SDS011;12763;55.802;37.404;2023-05-10T09:00:51;10.88;;;2.97;;
24619;SDS011;12763;55.802;37.404;2023-05-10T09:03:18;7.13;;;2.65;;
24619;SDS011;12763;55.802;37.404;2023-05-10T09:05:44;3.20;;;1.95;;
24619;SDS011;12763;55.802;37.404;2023-05-10T09:08:14;8.50;;;2.20;;
24619;SDS011;12763;55.802;37.404;2023-05-10T09:10:46;6.80;;;2.58;;
24619;SDS011;12763;55.802;37.404;2023-05-10T09:13:14;10.63;;;2.75;;
24619;SDS011;12763;55.802;37.404;2023-05-10T09:15:44;6.90;;;2.22;;
24619;SDS011;12763;55.802;37.404;2023-05-10T09:18:11;6.03;;;2.38;;
24619;SDS011;12763;55.802;37.404;2023-05-10T09:20:37;3.80;;;1.88;;
24619;SDS011;12763;55.802;37.404;2023-05-10T09:23:04;2.80;;;2.13;;
24619;SDS011;12763;55.802;37.404;2023-05-10T09:25:31;4.18;;;2.47;;
24619;SDS011;12763;55.802;37.404;2023-05-10T09:28:00;7.53;;;2.10;;
24619;SDS011;12763;55.802;37.404;2023-05-10T09:30:32;5.18;;;2.20;;
24619;SDS011;12763;55.802;37.404;2023-05-10T09:32:59;9.77;;;2.30;;
24619;SDS011;12763;55.802;37.404;2023-05-10T09:35:26;5.78;;;2.35;;
24619;SDS011;12763;55.802;37.404;2023-05-10T09:37:55;6.32;;;2.28;;
24619;SDS011;12763;55.802;37.404;2023-05-10T09:40:32;6.43;;;3.22;;
24619;SDS011;12763;55.802;37.404;2023-05-10T09:43:02;8.20;;;3.25;;
24619;SDS011;12763;55.802;37.404;2023-05-10T09:45:34;8.75;;;2.70;;
24619;SDS011;12763;55.802;37.404;2023-05-10T09:48:02;3.55;;;2.25;;
24619;SDS011;12763;55.802;37.404;2023-05-10T09:50:32;4.93;;;2.20;;
24619;SDS011;12763;55.802;37.404;2023-05-10T09:53:02;6.53;;;2.45;;
24619;SDS011;12763;55.802;37.404;2023-05-10T09:58:04;5.28;;;2.50;;
24619;SDS011;12763;55.802;37.404;2023-05-10T10:00:42;4.90;;;2.13;;
24619;SDS011;12763;55.802;37.404;2023-05-10T10:03:14;7.95;;;2.40;;
24619;SDS011;12763;55.802;37.404;2023-05-10T10:05:42;4.80;;;2.88;;
24619;SDS011;12763;55.802;37.404;2023-05-10T10:08:09;3.65;;;2.60;;
24619;SDS011;12763;55.802;37.404;2023-05-10T10:10:36;8.35;;;2.67;;
24619;SDS011;12763;55.802;37.404;2023-05-10T10:13:02;3.22;;;2.13;;
24619;SDS011;12763;55.802;37.404;2023-05-10T10:15:28;3.78;;;2.42;;
24619;SDS011;12763;55.802;37.404;2023-05-10T10:17:54;7.13;;;2.83;;
24619;SDS011;12763;55.802;37.404;2023-05-10T10:20:22;5.65;;;2.50;;
24619;SDS011;12763;55.802;37.404;2023-05-10T10:22:48;4.28;;;2.70;;
24619;SDS011;12763;55.802;37.404;2023-05-10T10:25:15;13.50;;;2.65;;
24619;SDS011;12763;55.802;37.404;2023-05-10T10:35:43;4.30;;;2.40;;
24619;SDS011;12763;55.802;37.404;2023-05-10T10:38:11;5.90;;;2.38;;
24619;SDS011;12763;55.802;37.404;2023-05-10T10:40:38;9.52;;;2.10;;
24619;SDS011;12763;55.802;37.404;2023-05-10T10:43:23;4.68;;;1.95;;
24619;SDS011;12763;55.802;37.404;2023-05-10T10:51:38;4.35;;;2.03;;
24619;SDS011;12763;55.802;37.404;2023-05-10T10:54:09;3.88;;;2.10;;
24619;SDS011;12763;55.802;37.404;2023-05-10T10:56:38;4.18;;;1.85;;
24619;SDS011;12763;55.802;37.404;2023-05-10T10:59:05;6.35;;;2.85;;
24619;SDS011;12763;55.802;37.404;2023-05-10T11:01:34;5.68;;;2.40;;
24619;SDS011;12763;55.802;37.404;2023-05-10T11:06:35;2.67;;;2.22;;
24619;SDS011;12763;55.802;37.404;2023-05-10T11:09:08;4.60;;;2.85;;
24619;SDS011;12763;55.802;37.404;2023-05-10T11:11:51;4.70;;;2.42;;
24619;SDS011;12763;55.802;37.404;2023-05-10T11:14:28;3.08;;;2.00;;
24619;SDS011;12763;55.802;37.404;2023-05-10T11:17:00;6.13;;;2.05;;
24619;SDS011;12763;55.802;37.404;2023-05-10T11:19:27;4.38;;;2.00;;
24619;SDS011;12763;55.802;37.404;2023-05-10T11:27:01;3.88;;;2.15;;
24619;SDS011;12763;55.802;37.404;2023-05-10T11:29:27;6.15;;;2.40;;
24619;SDS011;12763;55.802;37.404;2023-05-10T11:31:56;5.30;;;2.25;;
24619;SDS011;12763;55.802;37.404;2023-05-10T11:34:27;6.05;;;2.45;;
24619;SDS011;12763;55.802;37.404;2023-05-10T11:36:56;4.47;;;2.10;;
24619;SDS011;12763;55.802;37.404;2023-05-10T11:39:29;6.70;;;1.77;;
24619;SDS011;12763;55.802;37.404;2023-05-10T11:41:57;5.05;;;2.25;;
24619;SDS011;12763;55.802;37.404;2023-05-10T11:44:31;3.65;;;2.22;;
24619;SDS011;12763;55.802;37.404;2023-05-10T11:47:01;3.45;;;2.03;;
24619;SDS011;12763;55.802;37.404;2023-05-10T11:49:28;4.03;;;2.38;;
24619;SDS011;12763;55.802;37.404;2023-05-10T11:52:07;6.53;;;2.35;;
24619;SDS011;12763;55.802;37.404;2023-05-10T11:54:34;5.38;;;1.95;;
24619;SDS011;12763;55.802;37.404;2023-05-10T11:57:00;8.13;;;2.33;;
24619;SDS011;12763;55.802;37.404;2023-05-10T11:59:27;4.25;;;2.08;;
24619;SDS011;12763;55.802;37.404;2023-05-10T12:01:53;6.72;;;2.03;;
24619;SDS011;12763;55.802;37.404;2023-05-10T12:04:19;3.83;;;2.15;;
24619;SDS011;12763;55.802;37.404;2023-05-10T12:06:46;2.42;;;2.00;;
24619;SDS011;12763;55.802;37.404;2023-05-10T12:09:13;4.07;;;1.83;;
24619;SDS011;12763;55.802;37.404;2023-05-10T12:11:40;3.88;;;2.17;;
24619;SDS011;12763;55.802;37.404;2023-05-10T12:14:07;4.93;;;2.60;;
24619;SDS011;12763;55.802;37.404;2023-05-10T12:16:35;3.20;;;1.92;;
24619;SDS011;12763;55.802;37.404;2023-05-10T12:19:01;2.88;;;1.90;;
24619;SDS011;12763;55.802;37.404;2023-05-10T12:21:28;5.32;;;2.17;;
24619;SDS011;12763;55.802;37.404;2023-05-10T12:23:59;2.25;;;1.98;;
24619;SDS011;12763;55.802;37.404;2023-05-10T12:26:28;5.60;;;2.20;;
24619;SDS011;12763;55.802;37.404;2023-05-10T12:29:11;5.38;;;2.22;;
24619;SDS011;12763;55.802;37.404;2023-05-10T12:31:58;5.43;;;1.95;;
24619;SDS011;12763;55.802;37.404;2023-05-10T12:34:32;4.60;;;2.30;;
24619;SDS011;12763;55.802;37.404;2023-05-10T12:37:00;4.57;;;2.22;;
24619;SDS011;12763;55.802;37.404;2023-05-10T12:39:40;7.47;;;2.72;;
24619;SDS011;12763;55.802;37.404;2023-05-10T12:42:08;6.10;;;2.20;;
24619;SDS011;12763;55.802;37.404;2023-05-10T12:44:35;6.13;;;2.15;;
24619;SDS011;12763;55.802;37.404;2023-05-10T12:47:01;3.15;;;2.03;;
24619;SDS011;12763;55.802;37.404;2023-05-10T12:49:28;6.10;;;2.58;;
24619;SDS011;12763;55.802;37.404;2023-05-10T12:51:54;3.70;;;2.28;;
24619;SDS011;12763;55.802;37.404;2023-05-10T12:54:20;8.77;;;1.92;;
24619;SDS011;12763;55.802;37.404;2023-05-10T12:56:46;4.32;;;2.20;;
24619;SDS011;12763;55.802;37.404;2023-05-10T12:59:12;12.45;;;2.30;;
24619;SDS011;12763;55.802;37.404;2023-05-10T13:01:38;6.60;;;2.28;;
24619;SDS011;12763;55.802;37.404;2023-05-10T13:04:05;4.88;;;2.30;;
24619;SDS011;12763;55.802;37.404;2023-05-10T13:06:31;5.43;;;2.50;;
24619;SDS011;12763;55.802;37.404;2023-05-10T13:08:57;7.75;;;2.13;;
24619;SDS011;12763;55.802;37.404;2023-05-10T13:11:23;9.48;;;2.65;;
24619;SDS011;12763;55.802;37.404;2023-05-10T13:13:50;5.70;;;2.45;;
24619;SDS011;12763;55.802;37.404;2023-05-10T13:16:16;6.13;;;2.33;;
24619;SDS011;12763;55.802;37.404;2023-05-10T13:18:42;6.40;;;2.38;;
24619;SDS011;12763;55.802;37.404;2023-05-10T13:21:12;2.50;;;2.08;;
24619;SDS011;12763;55.802;37.404;2023-05-10T13:23:38;3.83;;;1.95;;
24619;SDS011;12763;55.802;37.404;2023-05-10T13:26:04;5.43;;;2.17;;
24619;SDS011;12763;55.802;37.404;2023-05-10T13:28:33;4.15;;;2.17;;
24619;SDS011;12763;55.802;37.404;2023-05-10T13:30:59;5.18;;;2.17;;
24619;SDS011;12763;55.802;37.404;2023-05-10T13:33:25;2.50;;;2.03;;
24619;SDS011;12763;55.802;37.404;2023-05-10T13:35:51;5.32;;;2.28;;
24619;SDS011;12763;55.802;37.404;2023-05-10T13:38:18;3.47;;;1.88;;
24619;SDS011;12763;55.802;37.404;2023-05-10T13:40:44;8.43;;;2.17;;
24619;SDS011;12763;55.802;37.404;2023-05-10T13:43:10;4.32;;;2.20;;
24619;SDS011;12763;55.802;37.404;2023-05-10T13:45:36;3.40;;;2.10;;
24619;SDS011;12763;55.802;37.404;2023-05-10T13:48:03;5.57;;;1.83;;
24619;SDS011;12763;55.802;37.404;2023-05-10T13:50:29;7.45;;;2.40;;
24619;SDS011;12763;55.802;37.404;2023-05-10T13:52:55;3.28;;;2.08;;
24619;SDS011;12763;55.802;37.404;2023-05-10T13:55:22;7.13;;;2.30;;
24619;SDS011;12763;55.802;37.404;2023-05-10T13:57:48;7.88;;;2.40;;
24619;SDS011;12763;55.802;37.404;2023-05-10T14:00:14;7.53;;;2.25;;
24619;SDS011;12763;55.802;37.404;2023-05-10T14:02:48;11.60;;;3.17;;
24619;SDS011;12763;55.802;37.404;2023-05-10T14:05:14;4.82;;;2.28;;
24619;SDS011;12763;55.802;37.404;2023-05-10T14:07:40;7.95;;;2.65;;
24619;SDS011;12763;55.802;37.404;2023-05-10T14:10:06;6.35;;;2.50;;
24619;SDS011;12763;55.802;37.404;2023-05-10T14:12:33;6.78;;;2.42;;
24619;SDS011;12763;55.802;37.404;2023-05-10T14:15:00;5.68;;;2.20;;
24619;SDS011;12763;55.802;37.404;2023-05-10T14:17:29;7.85;;;2.47;;
24619;SDS011;12763;55.802;37.404;2023-05-10T14:19:59;4.93;;;1.75;;
24619;SDS011;12763;55.802;37.404;2023-05-10T14:22:25;6.15;;;2.13;;
24619;SDS011;12763;55.802;37.404;2023-05-10T14:24:51;6.93;;;2.22;;
24619;SDS011;12763;55.802;37.404;2023-05-10T14:27:17;3.00;;;1.88;;
24619;SDS011;12763;55.802;37.404;2023-05-10T14:29:43;6.57;;;2.10;;
24619;SDS011;12763;55.802;37.404;2023-05-10T14:32:09;3.35;;;2.10;;
24619;SDS011;12763;55.802;37.404;2023-05-10T14:34:36;5.18;;;2.20;;
24619;SDS011;12763;55.802;37.404;2023-05-10T14:37:02;3.40;;;2.40;;
24619;SDS011;12763;55.802;37.404;2023-05-10T14:39:28;7.57;;;2.20;;
24619;SDS011;12763;55.802;37.404;2023-05-10T14:41:55;5.00;;;2.22;;
24619;SDS011;12763;55.802;37.404;2023-05-10T14:44:22;6.15;;;2.15;;
24619;SDS011;12763;55.802;37.404;2023-05-10T14:46:49;2.65;;;2.10;;
24619;SDS011;12763;55.802;37.404;2023-05-10T14:49:15;3.20;;;2.05;;
24619;SDS011;12763;55.802;37.404;2023-05-10T14:51:41;5.30;;;2.15;;
24619;SDS011;12763;55.802;37.404;2023-05-10T14:54:08;4.43;;;2.33;;
24619;SDS011;12763;55.802;37.404;2023-05-10T14:56:33;4.03;;;2.60;;
24619;SDS011;12763;55.802;37.404;2023-05-10T14:59:00;7.13;;;2.58;;
24619;SDS011;12763;55.802;37.404;2023-05-10T15:01:26;11.18;;;3.03;;
24619;SDS011;12763;55.802;37.404;2023-05-10T15:03:52;6.15;;;3.00;;
24619;SDS011;12763;55.802;37.404;2023-05-10T15:06:22;4.22;;;2.75;;
24619;SDS011;12763;55.802;37.404;2023-05-10T15:08:50;7.43;;;2.95;;
24619;SDS011;12763;55.802;37.404;2023-05-10T15:11:17;10.60;;;2.92;;
24619;SDS011;12763;55.802;37.404;2023-05-10T15:13:43;4.65;;;2.45;;
24619;SDS011;12763;55.802;37.404;2023-05-10T15:16:09;6.63;;;2.75;;
24619;SDS011;12763;55.802;37.404;2023-05-10T15:18:36;5.60;;;2.83;;
24619;SDS011;12763;55.802;37.404;2023-05-10T15:21:02;7.55;;;2.95;;